Time;durP1;ratioP1;P1;durP2;ratioP2;P2;SDS_P1;SDS_P2;PMS_P1;PMS_P2;Temp;Humidity;BMP_temperature;BMP_pressure;BME280_temperature;BME280_humidity;BME280_pressure;Samples;Min_cycle;Max_cycle;Signal;HPM_P1;HPM_P2
2023/12/15 00:02:28;;;;;;;29.85;9.45;;;;;;;-148.14;100.00;65945.72;4940530;29;20075;-90
2023/12/15 00:05:13;;;;;;;30.70;9.07;;;;;;;-148.14;100.00;65945.72;4926314;29;20059;-87
2023/12/15 00:07:57;;;;;;;31.75;8.98;;;;;;;-148.14;100.00;65945.72;4926116;29;20047;-87
2023/12/15 00:10:41;;;;;;;34.70;8.40;;;;;;;-148.14;100.00;65945.72;4925939;29;20191;-89
2023/12/15 00:13:25;;;;;;;29.88;7.70;;;;;;;-148.14;100.00;65945.72;4926404;29;20141;-88
2023/12/15 00:16:12;;;;;;;24.73;6.93;;;;;;;-148.14;100.00;65945.72;4940632;29;20094;-89
2023/12/15 00:18:56;;;;;;;27.33;7.72;;;;;;;-148.14;100.00;65945.72;4925947;29;20098;-87
2023/12/15 00:21:40;;;;;;;33.50;7.00;;;;;;;-148.14;100.00;65945.72;4926439;29;20051;-88
2023/12/15 00:24:24;;;;;;;26.90;6.82;;;;;;;-148.14;100.00;65945.72;4926094;29;20135;-88
2023/12/15 00:27:09;;;;;;;31.13;6.72;;;;;;;-148.14;100.00;65945.72;4926757;29;20143;-88
2023/12/15 00:29:53;;;;;;;20.77;7.38;;;;;;;-148.14;100.00;65945.72;4930371;29;20046;-89
2023/12/15 00:32:46;;;;;;;26.15;9.20;;;;;;;-148.14;100.00;65945.72;4938215;29;20067;-91
2023/12/15 00:35:34;;;;;;;24.63;7.63;;;;;;;-148.14;100.00;65945.72;4939448;29;20128;-90
2023/12/15 00:38:32;;;;;;;28.88;7.35;;;;;;;-148.14;100.00;65945.72;4945061;29;20071;-91
2023/12/15 00:41:32;;;;;;;24.85;8.13;;;;;;;-148.14;100.00;65945.72;4956614;29;20115;-91
2023/12/15 00:44:40;;;;;;;25.83;6.80;;;;;;;-148.14;100.00;65945.72;4972332;29;20123;-90
2023/12/15 00:47:24;;;;;;;20.52;5.93;;;;;;;-148.14;100.00;65945.72;4959235;29;20078;-90
2023/12/15 00:50:09;;;;;;;27.30;7.50;;;;;;;-148.14;100.00;65945.72;4958179;29;20129;-90
2023/12/15 00:56:47;;;;;;;22.83;5.88;;;;;;;-148.14;100.00;65945.72;4977382;29;20078;-90
2023/12/15 01:10:11;;;;;;;23.88;5.50;;;;;;;-148.14;100.00;65945.72;4926179;29;20182;-90
2023/12/15 01:20:10;;;;;;;17.13;5.72;;;;;;;-148.14;100.00;65945.72;4951279;29;20079;-90
2023/12/15 01:22:54;;;;;;;22.30;5.88;;;;;;;-148.14;100.00;65945.72;4947817;29;20074;-91
2023/12/15 01:25:39;;;;;;;30.33;6.05;;;;;;;-148.14;100.00;65945.72;4950141;29;20596;-91
2023/12/15 01:28:29;;;;;;;24.13;5.85;;;;;;;-148.14;100.00;65945.72;4952476;29;20092;-91
2023/12/15 01:31:25;;;;;;;19.67;5.95;;;;;;;-148.14;100.00;65945.72;4955797;29;20063;-91
2023/12/15 01:34:10;;;;;;;26.23;6.60;;;;;;;-148.14;100.00;65945.72;4942672;29;20062;-90
2023/12/15 01:36:57;;;;;;;20.63;6.43;;;;;;;-148.14;100.00;65945.72;4952490;29;20054;-90
2023/12/15 01:39:44;;;;;;;25.77;5.78;;;;;;;-148.14;100.00;65945.72;4952417;29;20051;-90
2023/12/15 01:42:41;;;;;;;19.55;5.78;;;;;;;-148.14;100.00;65945.72;4954194;29;20083;-90
2023/12/15 01:45:25;;;;;;;24.55;5.78;;;;;;;-148.14;100.00;65945.72;4952780;29;20043;-89
2023/12/15 01:48:20;;;;;;;19.63;5.32;;;;;;;-148.14;100.00;65945.72;4951795;29;20079;-90
2023/12/15 01:51:08;;;;;;;20.38;5.55;;;;;;;-148.14;100.00;65945.72;4953085;29;20116;-90
2023/12/15 01:53:58;;;;;;;21.98;5.40;;;;;;;-148.14;100.00;65945.72;4950835;29;20059;-91
2023/12/15 01:57:06;;;;;;;32.65;5.75;;;;;;;-148.14;100.00;65945.72;4954777;29;20080;-90
2023/12/15 02:04:48;;;;;;;23.58;5.32;;;;;;;-148.14;100.00;65945.72;4955052;29;20054;-90
2023/12/15 02:07:40;;;;;;;20.50;4.43;;;;;;;-148.14;100.00;65945.72;4933805;29;20074;-90
2023/12/15 02:14:14;;;;;;;20.27;5.10;;;;;;;-148.14;100.00;65945.72;4973957;28;20079;-90
2023/12/15 02:17:17;;;;;;;29.83;5.95;;;;;;;-148.14;100.00;65945.72;4959220;29;20029;-90
2023/12/15 02:20:06;;;;;;;22.80;5.38;;;;;;;-148.14;100.00;65945.72;4932785;29;20058;-91
2023/12/15 02:22:51;;;;;;;21.55;6.20;;;;;;;-148.14;100.00;65945.72;4956179;29;20042;-91
2023/12/15 02:25:40;;;;;;;25.15;6.38;;;;;;;-148.14;100.00;65945.72;4956541;29;20062;-90
2023/12/15 02:28:42;;;;;;;21.30;4.70;;;;;;;-148.14;100.00;65945.72;4956228;29;20050;-90
2023/12/15 02:31:27;;;;;;;17.63;4.53;;;;;;;-148.14;100.00;65945.72;4956573;29;20070;-90
2023/12/15 02:34:15;;;;;;;21.20;4.45;;;;;;;-148.14;100.00;65945.72;4956776;29;20046;-90
2023/12/15 02:37:00;;;;;;;20.58;5.30;;;;;;;-148.14;100.00;65945.72;4955150;29;20089;-90
2023/12/15 02:39:47;;;;;;;20.92;5.05;;;;;;;-148.14;100.00;65945.72;4952577;29;20041;-90
2023/12/15 02:42:34;;;;;;;22.25;5.00;;;;;;;-148.14;100.00;65945.72;4954622;29;20075;-90
2023/12/15 02:45:21;;;;;;;17.73;4.55;;;;;;;-148.14;100.00;65945.72;4953695;29;20082;-90
2023/12/15 02:48:06;;;;;;;19.27;4.53;;;;;;;-148.14;100.00;65945.72;4954571;29;20091;-90
2023/12/15 02:50:59;;;;;;;19.77;5.15;;;;;;;-148.14;100.00;65945.72;4953679;29;20077;-90
2023/12/15 02:53:44;;;;;;;17.02;5.53;;;;;;;-148.14;100.00;65945.72;4952852;29;20099;-91
2023/12/15 02:56:30;;;;;;;12.13;3.70;;;;;;;-148.14;100.00;65945.72;4952714;29;20079;-90
2023/12/15 02:59:14;;;;;;;18.02;3.92;;;;;;;-148.14;100.00;65945.72;4953051;29;20063;-90
2023/12/15 03:01:59;;;;;;;18.80;4.40;;;;;;;-148.14;100.00;65945.72;4952643;29;20087;-90
2023/12/15 03:09:05;;;;;;;26.80;5.18;;;;;;;-148.14;100.00;65945.72;4976452;29;20070;-90
2023/12/15 03:19:26;;;;;;;19.85;4.18;;;;;;;-148.14;100.00;65945.72;4910058;29;20076;-90
2023/12/15 03:22:11;;;;;;;20.38;4.82;;;;;;;-148.14;100.00;65945.72;4938698;29;20095;-89
2023/12/15 03:29:09;;;;;;;20.55;3.63;;;;;;;-148.14;100.00;65945.72;4957845;29;20051;-90
2023/12/15 03:31:56;;;;;;;13.98;4.28;;;;;;;-148.14;100.00;65945.72;4931525;29;20055;-90
2023/12/15 03:34:47;;;;;;;18.95;4.68;;;;;;;-148.14;100.00;65945.72;4959059;29;20050;-90
2023/12/15 03:37:32;;;;;;;18.08;4.45;;;;;;;-148.14;100.00;65945.72;4931672;29;20058;-90
2023/12/15 03:40:16;;;;;;;19.63;4.65;;;;;;;-148.14;100.00;65945.72;4935764;29;20046;-90
2023/12/15 03:43:00;;;;;;;17.45;4.85;;;;;;;-148.14;100.00;65945.72;4935316;29;20055;-90
2023/12/15 03:45:44;;;;;;;18.83;4.32;;;;;;;-148.14;100.00;65945.72;4936490;29;20573;-89
2023/12/15 03:48:28;;;;;;;14.93;4.82;;;;;;;-148.14;100.00;65945.72;4934325;29;20536;-90
2023/12/15 03:51:12;;;;;;;17.13;4.63;;;;;;;-148.14;100.00;65945.72;4935869;29;20071;-90
2023/12/15 03:53:57;;;;;;;25.17;4.53;;;;;;;-148.14;100.00;65945.72;4935522;29;20043;-90
2023/12/15 03:56:41;;;;;;;21.83;4.45;;;;;;;-148.14;100.00;65945.72;4935862;29;20564;-90
2023/12/15 03:59:26;;;;;;;18.25;4.18;;;;;;;-148.14;100.00;65945.72;4934499;29;20074;-91
2023/12/15 04:02:14;;;;;;;18.30;4.43;;;;;;;-148.14;100.00;65945.72;4937672;29;20050;-90
2023/12/15 04:05:04;;;;;;;23.70;5.65;;;;;;;-148.14;100.00;65945.72;4937208;29;20087;-90
2023/12/15 04:07:49;;;;;;;22.05;4.90;;;;;;;-148.14;100.00;65945.72;4937389;29;20075;-90
2023/12/15 04:10:44;;;;;;;21.77;3.92;;;;;;;-148.14;100.00;65945.72;4935223;29;20055;-90
2023/12/15 04:13:28;;;;;;;17.50;4.35;;;;;;;-148.14;100.00;65945.72;4937691;29;20079;-90
2023/12/15 04:16:13;;;;;;;14.52;4.00;;;;;;;-148.14;100.00;65945.72;4938302;29;20095;-90
2023/12/15 04:19:03;;;;;;;25.00;4.15;;;;;;;-148.14;100.00;65945.72;4937062;29;20067;-89
2023/12/15 04:21:49;;;;;;;17.38;4.13;;;;;;;-148.14;100.00;65945.72;4937763;29;20098;-89
2023/12/15 04:24:36;;;;;;;21.70;3.92;;;;;;;-148.14;100.00;65945.72;4937577;29;20417;-91
2023/12/15 04:27:20;;;;;;;19.17;5.00;;;;;;;-148.14;100.00;65945.72;4937163;29;20095;-90
2023/12/15 04:30:06;;;;;;;18.10;4.20;;;;;;;-148.14;100.00;65945.72;4936366;29;20058;-90
2023/12/15 04:32:51;;;;;;;20.80;4.40;;;;;;;-148.14;100.00;65945.72;4936292;29;20666;-90
2023/12/15 04:35:35;;;;;;;26.65;4.00;;;;;;;-148.14;100.00;65945.72;4935685;29;20102;-90
2023/12/15 04:38:22;;;;;;;18.48;4.82;;;;;;;-148.14;100.00;65945.72;4935023;29;20098;-90
2023/12/15 04:41:18;;;;;;;21.02;5.07;;;;;;;-148.14;100.00;65945.72;4936065;29;20058;-90
2023/12/15 04:44:03;;;;;;;14.98;4.65;;;;;;;-148.14;100.00;65945.72;4935578;29;20091;-90
2023/12/15 04:46:49;;;;;;;19.83;4.65;;;;;;;-148.14;100.00;65945.72;4936935;29;20140;-90
2023/12/15 04:49:33;;;;;;;18.52;4.35;;;;;;;-148.14;100.00;65945.72;4936453;29;20474;-90
2023/12/15 04:52:20;;;;;;;22.00;3.88;;;;;;;-148.14;100.00;65945.72;4936623;29;20047;-90
2023/12/15 04:55:06;;;;;;;20.73;4.93;;;;;;;-148.14;100.00;65945.72;4936064;29;20079;-90
2023/12/15 04:57:52;;;;;;;21.48;4.47;;;;;;;-148.14;100.00;65945.72;4922697;29;20067;-91
2023/12/15 05:00:36;;;;;;;22.88;4.78;;;;;;;-148.14;100.00;65945.72;4936784;29;20110;-90
2023/12/15 05:03:22;;;;;;;19.75;4.35;;;;;;;-148.14;100.00;65945.72;4935785;29;20057;-91
2023/12/15 05:06:18;;;;;;;16.27;4.03;;;;;;;-148.14;100.00;65945.72;4934889;29;20083;-90
2023/12/15 05:09:08;;;;;;;13.18;4.38;;;;;;;-148.14;100.00;65945.72;4934505;29;20058;-89
2023/12/15 05:11:53;;;;;;;16.55;4.80;;;;;;;-148.14;100.00;65945.72;4935443;29;20051;-90
2023/12/15 05:14:38;;;;;;;23.70;4.75;;;;;;;-148.14;100.00;65945.72;4935379;29;20110;-91
2023/12/15 05:17:23;;;;;;;19.30;6.43;;;;;;;-148.14;100.00;65945.72;4941582;29;20605;-90
2023/12/15 05:20:08;;;;;;;23.48;4.43;;;;;;;-148.14;100.00;65945.72;4953848;29;20083;-90
2023/12/15 05:22:52;;;;;;;22.52;4.65;;;;;;;-148.14;100.00;65945.72;4952785;29;20045;-89
2023/12/15 05:25:36;;;;;;;16.23;3.72;;;;;;;-148.14;100.00;65945.72;4953822;29;20046;-90
2023/12/15 05:28:21;;;;;;;21.42;4.75;;;;;;;-148.14;100.00;65945.72;4953722;29;20047;-89
2023/12/15 05:31:06;;;;;;;19.67;4.47;;;;;;;-148.14;100.00;65945.72;4953874;29;20111;-91
2023/12/15 05:33:51;;;;;;;21.98;4.50;;;;;;;-148.14;100.00;65945.72;4953102;29;20129;-90
2023/12/15 05:36:35;;;;;;;16.30;4.40;;;;;;;-148.14;100.00;65945.72;4952120;29;20051;-90
2023/12/15 05:39:20;;;;;;;20.30;3.97;;;;;;;-148.14;100.00;65945.72;4954545;29;20118;-91
2023/12/15 05:42:05;;;;;;;20.33;4.32;;;;;;;-148.14;100.00;65945.72;4953631;29;20049;-91
2023/12/15 05:44:51;;;;;;;16.75;4.25;;;;;;;-148.14;100.00;65945.72;4951707;28;20054;-90
2023/12/15 05:47:39;;;;;;;22.25;5.00;;;;;;;-148.14;100.00;65945.72;4952878;29;20050;-90
2023/12/15 05:50:23;;;;;;;15.65;5.53;;;;;;;-148.14;100.00;65945.72;4952934;29;20098;-91
2023/12/15 05:53:08;;;;;;;24.65;4.13;;;;;;;-148.14;100.00;65945.72;4952711;29;20046;-90
2023/12/15 05:55:53;;;;;;;15.95;5.07;;;;;;;-148.14;100.00;65945.72;4952796;29;20058;-89
2023/12/15 05:58:37;;;;;;;26.45;5.13;;;;;;;-148.14;100.00;65945.72;4952091;29;20034;-90
2023/12/15 06:01:22;;;;;;;19.30;3.95;;;;;;;-148.14;100.00;65945.72;4951813;29;20061;-91
2023/12/15 06:04:06;;;;;;;20.73;5.10;;;;;;;-148.14;100.00;65945.72;4952195;29;20134;-90
2023/12/15 06:06:51;;;;;;;21.65;4.80;;;;;;;-148.14;100.00;65945.72;4952081;29;20046;-90
2023/12/15 06:09:40;;;;;;;18.35;5.22;;;;;;;-148.14;100.00;65945.72;4951543;29;20110;-91
2023/12/15 06:12:25;;;;;;;26.33;4.78;;;;;;;-148.14;100.00;65945.72;4953745;29;20102;-89
2023/12/15 06:15:09;;;;;;;19.30;4.93;;;;;;;-148.14;100.00;65945.72;4953962;29;20131;-90
2023/12/15 06:17:55;;;;;;;21.80;4.95;;;;;;;-148.14;100.00;65945.72;4954511;29;20058;-91
2023/12/15 06:20:47;;;;;;;24.55;5.20;;;;;;;-148.14;100.00;65945.72;4953932;29;20077;-89
2023/12/15 06:23:31;;;;;;;17.08;5.22;;;;;;;-148.14;100.00;65945.72;4950708;29;20053;-89
2023/12/15 06:26:24;;;;;;;19.40;4.50;;;;;;;-148.14;100.00;65945.72;4951006;29;20058;-90
2023/12/15 06:29:08;;;;;;;21.90;4.68;;;;;;;-148.14;100.00;65945.72;4951362;29;20074;-90
2023/12/15 06:31:52;;;;;;;17.40;4.22;;;;;;;-148.14;100.00;65945.72;4950132;29;20058;-89
2023/12/15 06:34:42;;;;;;;21.40;4.63;;;;;;;-148.14;100.00;65945.72;4950099;29;20050;-90
2023/12/15 06:37:26;;;;;;;16.40;4.10;;;;;;;-148.14;100.00;65945.72;4950268;29;20053;-90
2023/12/15 06:40:11;;;;;;;16.65;4.43;;;;;;;-148.14;100.00;65945.72;4952075;29;20042;-90
2023/12/15 06:42:58;;;;;;;19.55;4.70;;;;;;;-148.14;100.00;65945.72;4951800;29;20142;-90
2023/12/15 06:45:43;;;;;;;21.23;5.30;;;;;;;-148.14;100.00;65945.72;4949812;29;20050;-91
2023/12/15 06:48:27;;;;;;;22.85;4.80;;;;;;;-148.14;100.00;65945.72;4951855;29;20051;-89
2023/12/15 06:51:18;;;;;;;25.75;4.78;;;;;;;-148.14;100.00;65945.72;4952027;29;20086;-89
2023/12/15 06:54:02;;;;;;;13.90;3.40;;;;;;;-148.14;100.00;65945.72;4951088;29;20058;-91
2023/12/15 06:56:49;;;;;;;22.48;4.88;;;;;;;-148.14;100.00;65945.72;4951854;29;20520;-89
2023/12/15 06:59:36;;;;;;;21.35;4.32;;;;;;;-148.14;100.00;65945.72;4951222;29;20066;-89
2023/12/15 07:06:26;;;;;;;12.13;4.00;;;;;;;-148.14;100.00;65945.72;4965074;29;20078;-89
2023/12/15 07:13:20;;;;;;;19.00;4.25;;;;;;;-148.14;100.00;65945.72;4965110;29;20172;-89
2023/12/15 07:16:12;;;;;;;13.48;3.92;;;;;;;-148.14;100.00;65945.72;4950972;29;20111;-89
2023/12/15 07:18:59;;;;;;;16.65;3.90;;;;;;;-148.14;100.00;65945.72;4949486;29;20050;-88
2023/12/15 07:21:51;;;;;;;13.48;3.80;;;;;;;-148.14;100.00;65945.72;4948512;29;20051;-89
2023/12/15 07:56:50;;;;;;;18.98;6.40;;;;;;;-148.14;100.00;65945.72;4772544;30;20148;-86
2023/12/15 08:11:28;;;;;;;;;;;;;;;;;;;;;
2023/12/15 08:26:45;;;;;;;14.07;3.35;;;;;;;-148.14;100.00;65945.72;4859920;29;20280;-89
2023/12/15 08:29:48;;;;;;;10.25;3.03;;;;;;;-148.14;100.00;65945.72;4933693;29;20098;-87
2023/12/15 08:32:37;;;;;;;16.75;3.80;;;;;;;-148.14;100.00;65945.72;4914364;29;20051;-88
2023/12/15 08:35:40;;;;;;;18.23;3.25;;;;;;;-148.14;100.00;65945.72;4913303;29;20178;-88
2023/12/15 08:38:37;;;;;;;14.82;4.32;;;;;;;-148.14;100.00;65945.72;4921128;29;20100;-89
2023/12/15 08:53:25;;;;;;;17.80;3.65;;;;;;;-148.14;100.00;65945.72;4794062;29;20111;-88
2023/12/15 09:00:23;;;;;;;13.32;3.70;;;;;;;-148.14;100.00;65945.72;4830544;29;20144;-89
2023/12/15 09:03:17;;;;;;;;;;;;;;;-148.14;100.00;65945.72;4820386;29;20113;-89
2023/12/15 09:18:44;;;;;;;15.25;3.38;;;;;;;-148.14;100.00;65945.72;4846957;29;20109;-87
2023/12/15 09:21:57;;;;;;;9.20;3.05;;;;;;;-148.14;100.00;65945.72;4848379;29;20086;-88
2023/12/15 11:13:07;;;;;;;;;;;;;;;;;;;;;
2023/12/15 11:16:25;;;;;;;9.02;2.20;;;;;;;-148.14;100.00;65945.72;4914607;29;20066;-90
2023/12/15 11:20:08;;;;;;;5.15;2.35;;;;;;;-148.14;100.00;65945.72;4894973;29;20625;-90
2023/12/15 11:38:28;;;;;;;7.93;2.58;;;;;;;-148.14;100.00;65945.72;5621689;23;20076;-89
2023/12/15 12:08:44;;;;;;;6.50;2.85;;;;;;;-148.14;100.00;65945.72;3137179;23;20055;-89
2023/12/15 12:20:45;;;;;;;10.88;3.75;;;;;;;-148.14;100.00;65945.72;4933292;29;20042;-89
2023/12/15 12:23:50;;;;;;;13.70;3.63;;;;;;;-148.14;100.00;65945.72;4917005;29;20063;-89
2023/12/15 12:30:47;;;;;;;10.65;4.05;;;;;;;-148.14;100.00;65945.72;4930933;29;20066;-89
2023/12/15 12:41:23;;;;;;;10.57;3.07;;;;;;;-148.14;100.00;65945.72;4863734;29;20075;-89
2023/12/15 12:44:30;;;;;;;9.32;3.47;;;;;;;-148.14;100.00;65945.72;4909114;29;20117;-90
2023/12/15 12:47:48;;;;;;;9.25;2.88;;;;;;;-148.14;100.00;65945.72;4915692;29;20086;-89
2023/12/15 12:51:24;;;;;;;17.35;3.65;;;;;;;-148.14;100.00;65945.72;4908443;29;20115;-89
2023/12/15 12:54:38;;;;;;;16.30;3.97;;;;;;;-148.14;100.00;65945.72;4885689;29;20570;-88
2023/12/15 12:58:00;;;;;;;11.48;3.40;;;;;;;-148.14;100.00;65945.72;4902507;29;20058;-91
2023/12/15 13:05:17;;;;;;;19.80;3.30;;;;;;;-148.14;100.00;65945.72;4937024;29;20107;-90
2023/12/15 13:08:09;;;;;;;22.63;3.80;;;;;;;-148.14;100.00;65945.72;4923126;29;20080;-89
2023/12/15 13:10:58;;;;;;;11.73;3.20;;;;;;;-148.14;100.00;65945.72;4911528;29;20054;-91
2023/12/15 13:13:45;;;;;;;10.95;3.30;;;;;;;-148.14;100.00;65945.72;4904722;29;20086;-88
2023/12/15 13:20:39;;;;;;;12.38;3.67;;;;;;;-148.14;100.00;65945.72;4917331;29;20047;-88
2023/12/15 13:24:03;;;;;;;15.43;3.55;;;;;;;-148.14;100.00;65945.72;4895725;29;20093;-90
2023/12/15 13:27:51;;;;;;;11.65;3.55;;;;;;;-148.14;100.00;65945.72;4905285;29;20513;-91
2023/12/15 13:31:07;;;;;;;13.50;3.13;;;;;;;-148.14;100.00;65945.72;4871050;29;20076;-91
2023/12/15 13:34:01;;;;;;;15.75;3.90;;;;;;;-148.14;100.00;65945.72;4910265;29;20076;-89
2023/12/15 13:48:34;;;;;;;15.27;3.72;;;;;;;-148.14;100.00;65945.72;4880017;29;20048;-89
2023/12/15 13:51:20;;;;;;;17.10;5.18;;;;;;;-148.14;100.00;65945.72;4881593;29;20126;-91
2023/12/15 13:54:05;;;;;;;12.68;4.05;;;;;;;-148.14;100.00;65945.72;4906066;29;20055;-90
2023/12/15 13:56:51;;;;;;;17.92;4.05;;;;;;;-148.14;100.00;65945.72;4905769;29;20059;-88
2023/12/15 13:59:36;;;;;;;14.75;3.20;;;;;;;-148.14;100.00;65945.72;4919868;29;20059;-89
2023/12/15 14:02:22;;;;;;;13.00;3.83;;;;;;;-148.14;100.00;65945.72;4905142;29;20068;-91
2023/12/15 14:05:06;;;;;;;17.38;3.80;;;;;;;-148.14;100.00;65945.72;4905102;29;20047;-90
2023/12/15 14:07:50;;;;;;;16.63;3.85;;;;;;;-148.14;100.00;65945.72;4904766;29;20055;-90
2023/12/15 14:10:36;;;;;;;14.70;3.75;;;;;;;-148.14;100.00;65945.72;4905499;29;20483;-90
2023/12/15 14:13:19;;;;;;;15.05;3.88;;;;;;;-148.14;100.00;65945.72;4905465;29;20178;-89
2023/12/15 14:16:04;;;;;;;15.07;4.47;;;;;;;-148.14;100.00;65945.72;4905591;29;20058;-89
2023/12/15 14:18:48;;;;;;;15.18;3.85;;;;;;;-148.14;100.00;65945.72;4894834;29;20047;-89
2023/12/15 14:21:32;;;;;;;18.35;4.57;;;;;;;-148.14;100.00;65945.72;4909558;29;20077;-89
2023/12/15 14:24:17;;;;;;;13.80;3.95;;;;;;;-148.14;100.00;65945.72;4904660;29;20123;-90
2023/12/15 14:27:01;;;;;;;16.38;4.35;;;;;;;-148.14;100.00;65945.72;4902519;29;20196;-88
2023/12/15 14:29:45;;;;;;;9.50;3.50;;;;;;;-148.14;100.00;65945.72;4900357;29;20043;-91
2023/12/15 14:32:35;;;;;;;20.48;4.22;;;;;;;-148.14;100.00;65945.72;4883966;29;20056;-89
2023/12/15 14:36:04;;;;;;;12.20;3.35;;;;;;;-148.14;100.00;65945.72;4899465;29;20043;-89
2023/12/15 14:38:48;;;;;;;14.40;3.80;;;;;;;-148.14;100.00;65945.72;4908357;29;20553;-89
2023/12/15 14:42:07;;;;;;;9.50;3.33;;;;;;;-148.14;100.00;65945.72;4903646;29;20095;-88
2023/12/15 14:44:55;;;;;;;14.80;4.05;;;;;;;-148.14;100.00;65945.72;4912203;29;20129;-89
2023/12/15 14:47:40;;;;;;;13.60;3.47;;;;;;;-148.14;100.00;65945.72;4894660;29;20079;-89
2023/12/15 14:50:24;;;;;;;14.82;4.57;;;;;;;-148.14;100.00;65945.72;4895600;29;20111;-89
2023/12/15 14:53:08;;;;;;;18.75;3.80;;;;;;;-148.14;100.00;65945.72;4889111;29;20425;-87
2023/12/15 14:55:52;;;;;;;23.85;5.00;;;;;;;-148.14;100.00;65945.72;4905177;29;20371;-90
2023/12/15 14:58:36;;;;;;;14.40;4.22;;;;;;;-148.14;100.00;65945.72;4901982;29;20071;-89
2023/12/15 15:01:21;;;;;;;25.98;6.35;;;;;;;-148.14;100.00;65945.72;4905698;29;20071;-88
2023/12/15 15:04:05;;;;;;;17.92;6.25;;;;;;;-148.14;100.00;65945.72;4891987;29;20518;-87
2023/12/15 15:07:03;;;;;;;18.30;6.85;;;;;;;-148.14;100.00;65945.72;4886797;29;20087;-89
2023/12/15 15:09:55;;;;;;;25.52;7.40;;;;;;;-148.14;100.00;65945.72;4888975;29;20215;-88
2023/12/15 15:12:39;;;;;;;25.17;8.05;;;;;;;-148.14;100.00;65945.72;4887955;29;20047;-89
2023/12/15 15:15:23;;;;;;;18.45;6.18;;;;;;;-148.14;100.00;65945.72;4909974;29;20513;-86
2023/12/15 15:18:07;;;;;;;18.70;6.65;;;;;;;-148.14;100.00;65945.72;4919822;29;20051;-88
2023/12/15 15:20:52;;;;;;;22.52;7.68;;;;;;;-148.14;100.00;65945.72;4931232;29;20454;-87
2023/12/15 15:23:36;;;;;;;23.15;8.38;;;;;;;-148.14;100.00;65945.72;4918729;29;20054;-86
2023/12/15 15:26:28;;;;;;;21.83;6.72;;;;;;;-148.14;100.00;65945.72;4920049;29;20110;-87
2023/12/15 15:29:15;;;;;;;20.85;8.02;;;;;;;-148.14;100.00;65945.72;4921883;29;20518;-89
2023/12/15 15:31:59;;;;;;;23.80;5.13;;;;;;;-148.14;100.00;65945.72;4921399;29;20119;-90
2023/12/15 15:34:43;;;;;;;22.60;5.57;;;;;;;-148.14;100.00;65945.72;4937580;29;20042;-86
2023/12/15 15:37:27;;;;;;;12.25;4.82;;;;;;;-148.14;100.00;65945.72;4935338;29;20513;-84
2023/12/15 15:40:11;;;;;;;18.10;4.97;;;;;;;-148.14;100.00;65945.72;4921851;29;20051;-84
2023/12/15 15:42:56;;;;;;;19.83;4.47;;;;;;;-148.14;100.00;65945.72;4922333;29;20418;-87
2023/12/15 15:45:41;;;;;;;30.70;6.25;;;;;;;-148.14;100.00;65945.72;4922093;29;20046;-87
2023/12/15 15:48:40;;;;;;;15.65;4.32;;;;;;;-148.14;100.00;65945.72;4918458;29;20046;-85
2023/12/15 15:51:40;;;;;;;16.85;3.97;;;;;;;-148.14;100.00;65945.72;4934732;29;20509;-85
2023/12/15 15:54:31;;;;;;;22.40;4.72;;;;;;;-148.14;100.00;65945.72;4916478;29;20162;-86
2023/12/15 15:57:22;;;;;;;17.08;3.85;;;;;;;-148.14;100.00;65945.72;4916035;29;20051;-85
2023/12/15 16:00:13;;;;;;;18.67;4.30;;;;;;;-148.14;100.00;65945.72;4923316;29;20509;-85
2023/12/15 16:03:08;;;;;;;23.10;6.13;;;;;;;-148.14;100.00;65945.72;4923285;29;20467;-87
2023/12/15 16:06:09;;;;;;;22.30;7.10;;;;;;;-148.14;100.00;65945.72;4921749;29;20454;-87
2023/12/15 16:09:02;;;;;;;23.38;6.63;;;;;;;-148.14;100.00;65945.72;4922486;29;20047;-84
2023/12/15 16:11:54;;;;;;;28.57;7.87;;;;;;;-148.14;100.00;65945.72;4919481;29;20164;-88
2023/12/15 16:15:33;;;;;;;26.98;8.85;;;;;;;-148.14;100.00;65945.72;4917541;29;20337;-89
2023/12/15 16:18:39;;;;;;;27.40;6.40;;;;;;;-148.14;100.00;65945.72;4917745;29;20046;-87
2023/12/15 16:25:04;;;;;;;22.27;7.32;;;;;;;-148.14;100.00;65945.72;4926711;29;20134;-89
2023/12/15 16:28:09;;;;;;;;;;;;;;;;;;;;;
2023/12/15 16:31:06;;;;;;;20.67;5.25;;;;;;;-148.14;100.00;65945.72;4935415;29;20054;-86
2023/12/15 16:34:18;;;;;;;22.88;5.75;;;;;;;-148.14;100.00;65945.72;4921974;29;20124;-87
2023/12/15 16:37:08;;;;;;;26.58;6.65;;;;;;;-148.14;100.00;65945.72;4922239;29;20047;-88
2023/12/15 16:40:07;;;;;;;17.95;5.00;;;;;;;-148.14;100.00;65945.72;4936730;29;20046;-87
2023/12/15 16:42:53;;;;;;;19.02;6.50;;;;;;;-148.14;100.00;65945.72;4923475;29;20177;-85
2023/12/15 16:45:38;;;;;;;24.77;5.90;;;;;;;-148.14;100.00;65945.72;4921596;29;20147;-86
2023/12/15 16:48:32;;;;;;;18.85;5.47;;;;;;;-148.14;100.00;65945.72;4921293;29;20130;-87
2023/12/15 16:51:18;;;;;;;25.27;6.18;;;;;;;-148.14;100.00;65945.72;4925403;29;20131;-86
2023/12/15 16:54:16;;;;;;;27.27;6.60;;;;;;;-148.14;100.00;65945.72;4920691;29;20050;-87
2023/12/15 16:57:43;;;;;;;22.25;6.55;;;;;;;-148.14;100.00;65945.72;4924524;29;20095;-87
2023/12/15 17:00:42;;;;;;;22.75;6.18;;;;;;;-148.14;100.00;65945.72;4921758;29;20505;-87
2023/12/15 17:03:30;;;;;;;19.90;5.38;;;;;;;-148.14;100.00;65945.72;4920894;29;21871;-87
2023/12/15 17:06:24;;;;;;;18.00;5.70;;;;;;;-148.14;100.00;65945.72;4917046;29;20071;-85
2023/12/15 17:09:13;;;;;;;18.67;6.35;;;;;;;-148.14;100.00;65945.72;4924077;29;20058;-86
2023/12/15 17:16:04;;;;;;;24.33;5.07;;;;;;;-148.14;100.00;65945.72;4920862;29;20054;-86
2023/12/15 17:18:56;;;;;;;23.42;5.97;;;;;;;-148.14;100.00;65945.72;4901787;29;20537;-87
2023/12/15 17:21:48;;;;;;;25.10;7.35;;;;;;;-148.14;100.00;65945.72;4901958;29;20047;-87
2023/12/15 17:24:44;;;;;;;22.83;5.85;;;;;;;-148.14;100.00;65945.72;4905553;29;20042;-87
2023/12/15 17:27:46;;;;;;;23.85;5.72;;;;;;;-148.14;100.00;65945.72;4904172;29;20447;-86
2023/12/15 17:30:45;;;;;;;27.25;7.80;;;;;;;-148.14;100.00;65945.72;4902112;29;20055;-86
2023/12/15 17:33:43;;;;;;;25.33;6.57;;;;;;;-148.14;100.00;65945.72;4917055;29;20076;-86
2023/12/15 17:36:27;;;;;;;24.42;6.35;;;;;;;-148.14;100.00;65945.72;4903573;29;20055;-85
2023/12/15 17:39:25;;;;;;;;;;;;;;;;;;;;;
2023/12/15 17:42:18;;;;;;;22.67;6.00;;;;;;;-148.14;100.00;65945.72;4915362;29;20043;-87
2023/12/15 17:45:12;;;;;;;25.63;6.53;;;;;;;-148.14;100.00;65945.72;4904733;29;20137;-86
2023/12/15 17:48:00;;;;;;;24.20;6.20;;;;;;;-148.14;100.00;65945.72;4901223;29;20123;-86
2023/12/15 17:54:16;;;;;;;23.98;6.00;;;;;;;-148.14;100.00;65945.72;4915256;29;20075;-86
2023/12/15 18:50:55;;;;;;;30.42;8.90;;;;;;;;;;6314927;22;20022;-88
2023/12/15 18:54:01;;;;;;;42.95;18.95;;;;;;;;;;6159470;23;20021;-89
2023/12/15 18:56:58;;;;;;;37.22;9.88;;;;;;;;;;6188183;23;20078;-88
2023/12/15 19:00:10;;;;;;;30.23;10.23;;;;;;;;;;6228324;23;20035;-89
2023/12/15 19:03:24;;;;;;;42.22;13.00;;;;;;;;;;6228254;23;20018;-86
2023/12/15 19:06:28;;;;;;;38.60;15.35;;;;;;;;;;6228339;23;20398;-88
2023/12/15 19:09:16;;;;;;;58.78;32.22;;;;;;;;;;6229224;23;20026;-88
2023/12/15 19:12:36;;;;;;;104.07;58.60;;;;;;;;;;6228703;23;20023;-88
2023/12/15 19:15:27;;;;;;;132.13;80.28;;;;;;;;;;6226638;23;20113;-87
2023/12/15 19:18:14;;;;;;;90.88;55.30;;;;;;;;;;6221834;23;20913;-87
2023/12/15 19:21:01;;;;;;;82.15;46.97;;;;;;;;;;6222835;23;20015;-88
2023/12/15 19:23:45;;;;;;;61.72;36.92;;;;;;;;;;6258426;22;20068;-88
2023/12/15 19:26:54;;;;;;;69.80;34.35;;;;;;;;;;6285674;22;20064;-87
2023/12/15 19:30:14;;;;;;;53.03;26.67;;;;;;;;;;6284119;22;20017;-88
2023/12/15 19:36:58;;;;;;;50.28;20.48;;;;;;;;;;6308881;22;20029;-86
2023/12/15 19:40:23;;;;;;;51.13;26.48;;;;;;;;;;6285138;22;20081;-86
2023/12/15 20:02:13;;;;;;;;;;;;;;;;;;;;;
2023/12/15 20:41:45;;;;;;;42.63;15.45;;;;;;;;;;6185552;23;20080;-86
2023/12/15 21:01:43;;;;;;;;;;;;;;;;;;;;;
2023/12/15 22:35:35;;;;;;;25.40;11.68;;;;;;;;;;6216476;23;20007;-89
2023/12/15 23:00:35;;;;;;;26.65;11.68;;;;;;;;;;6339998;22;20384;-90
